createdAt,value
2019-04-05T00:00:32.593Z,8.23
2019-04-05T00:03:01.872Z,8.40
2019-04-05T00:05:31.194Z,9.77
2019-04-05T00:08:00.477Z,9.67
2019-04-05T00:10:29.802Z,8.67
2019-04-05T00:12:59.125Z,8.97
2019-04-05T00:15:28.472Z,8.97
2019-04-05T00:17:57.740Z,8.37
2019-04-05T00:20:27.041Z,9.00
2019-04-05T00:22:56.312Z,9.10
2019-04-05T00:25:25.676Z,9.00
2019-04-05T00:27:55.096Z,9.10
2019-04-05T00:30:24.388Z,8.93
2019-04-05T00:32:53.676Z,9.20
2019-04-05T00:35:22.976Z,8.23
2019-04-05T00:37:52.285Z,8.80
2019-04-05T00:40:21.586Z,8.57
2019-04-05T00:42:50.928Z,9.70
2019-04-05T00:45:28.011Z,9.40
2019-04-05T00:47:51.228Z,9.67
2019-04-05T00:50:20.553Z,9.50
2019-04-05T00:52:49.850Z,9.57
2019-04-05T00:55:19.133Z,9.07
2019-04-05T00:57:49.583Z,9.53
2019-04-05T01:00:19.195Z,11.00
2019-04-05T01:02:48.469Z,10.17
2019-04-05T01:05:17.757Z,9.63
2019-04-05T01:07:46.890Z,9.97
2019-04-05T01:10:16.593Z,9.97
2019-04-05T01:12:47.209Z,10.00
2019-04-05T01:15:16.666Z,10.60
2019-04-05T01:17:45.825Z,10.17
2019-04-05T01:20:15.070Z,10.70
2019-04-05T01:22:46.313Z,10.67
2019-04-05T01:25:15.481Z,10.30
2019-04-05T01:27:45.078Z,9.57
2019-04-05T01:30:15.977Z,10.00
2019-04-05T01:32:45.651Z,9.73
2019-04-05T01:35:14.920Z,10.17
2019-04-05T01:37:44.794Z,10.20
2019-04-05T01:40:15.001Z,9.33
2019-04-05T01:42:45.869Z,9.50
2019-04-05T01:45:15.148Z,10.27
2019-04-05T01:47:44.395Z,9.80
2019-04-05T01:50:13.542Z,9.97
2019-04-05T01:52:43.412Z,9.80
2019-04-05T01:55:13.073Z,9.50
2019-04-05T01:57:43.613Z,9.33
2019-04-05T02:00:14.190Z,9.43
2019-04-05T02:02:43.365Z,9.83
2019-04-05T02:05:13.006Z,9.07
2019-04-05T02:07:42.478Z,9.97
2019-04-05T02:10:12.889Z,9.10
2019-04-05T02:12:42.056Z,10.03
2019-04-05T02:15:13.073Z,9.50
2019-04-05T02:17:42.275Z,10.57
2019-04-05T02:20:11.632Z,10.20
2019-04-05T02:22:40.776Z,9.30
2019-04-05T02:25:10.146Z,10.47
2019-04-05T02:27:39.470Z,11.13
2019-04-05T02:30:08.922Z,10.37
2019-04-05T02:32:38.097Z,10.20
2019-04-05T02:35:08.128Z,10.00
2019-04-05T02:37:37.616Z,10.97
2019-04-05T02:40:10.838Z,10.53
2019-04-05T02:42:40.514Z,9.93
2019-04-05T02:45:11.802Z,10.93
2019-04-05T02:47:43.137Z,9.77
2019-04-05T02:50:13.581Z,10.03
2019-04-05T02:52:44.653Z,10.27
2019-04-05T02:55:14.038Z,10.50
2019-04-05T02:57:45.334Z,10.83
2019-04-05T03:00:14.765Z,9.90
2019-04-05T03:02:44.442Z,10.13
2019-04-05T03:05:13.774Z,10.30
2019-04-05T03:07:43.042Z,9.83
2019-04-05T03:10:33.698Z,10.40
2019-04-05T03:13:02.949Z,10.10
2019-04-05T03:15:34.646Z,10.37
2019-04-05T03:18:03.873Z,10.70
2019-04-05T03:20:33.146Z,10.57
2019-04-05T03:23:02.430Z,10.60
2019-04-05T03:25:31.968Z,11.03
2019-04-05T03:28:01.191Z,11.47
2019-04-05T03:30:30.425Z,10.93
2019-04-05T03:32:59.655Z,10.83
2019-04-05T03:35:29.141Z,10.77
2019-04-05T03:37:58.707Z,11.40
2019-04-05T03:40:28.207Z,11.40
2019-04-05T03:42:57.663Z,10.70
2019-04-05T03:45:26.834Z,11.53
2019-04-05T03:47:56.430Z,11.37
2019-04-05T03:50:25.624Z,11.83
2019-04-05T03:52:54.830Z,10.80
2019-04-05T03:55:24.404Z,11.93
2019-04-05T03:57:53.886Z,12.10
2019-04-05T04:00:23.146Z,11.80
2019-04-05T04:02:52.369Z,11.90
2019-04-05T04:05:21.683Z,12.47
2019-04-05T04:07:50.834Z,11.90
2019-04-05T04:10:20.339Z,12.13
2019-04-05T04:12:50.717Z,11.13
2019-04-05T04:15:19.948Z,11.70
2019-04-05T04:17:49.119Z,11.30
2019-04-05T04:20:39.138Z,11.20
2019-04-05T04:23:09.722Z,11.53
2019-04-05T04:25:40.441Z,11.80
2019-04-05T04:28:10.341Z,12.20
2019-04-05T04:30:39.602Z,12.13
2019-04-05T04:33:08.944Z,11.40
2019-04-05T04:35:38.389Z,14.03
2019-04-05T04:38:07.561Z,12.63
2019-04-05T04:40:37.468Z,12.10
2019-04-05T04:43:06.615Z,12.87
2019-04-05T04:45:35.857Z,11.80
2019-04-05T04:48:05.370Z,12.37
2019-04-05T04:50:35.055Z,12.30
2019-04-05T04:53:04.627Z,11.80
2019-04-05T04:55:34.427Z,12.67
2019-04-05T04:58:03.641Z,13.57
2019-04-05T05:00:32.973Z,11.33
2019-04-05T05:03:02.326Z,11.43
2019-04-05T05:05:31.523Z,11.70
2019-04-05T05:08:00.823Z,11.60
2019-04-05T05:10:29.957Z,11.40
2019-04-05T05:12:59.233Z,11.73
2019-04-05T05:15:28.598Z,12.60
2019-04-05T05:17:59.089Z,12.40
2019-04-05T05:20:28.989Z,12.60
2019-04-05T05:22:58.389Z,12.57
2019-04-05T05:25:27.823Z,13.37
2019-04-05T05:27:57.379Z,12.53
2019-04-05T05:30:27.546Z,11.53
2019-04-05T05:32:56.922Z,13.00
2019-04-05T05:35:26.206Z,12.33
2019-04-05T05:37:55.928Z,12.07
2019-04-05T05:40:34.752Z,11.87
2019-04-05T05:42:56.238Z,13.57
2019-04-05T05:45:25.398Z,12.03
2019-04-05T05:47:54.555Z,12.33
2019-04-05T05:50:24.072Z,12.53
2019-04-05T05:52:53.434Z,12.67
2019-04-05T05:55:22.689Z,13.77
2019-04-05T05:57:54.298Z,12.80
2019-04-05T06:00:24.360Z,12.83
2019-04-05T06:02:53.587Z,13.50
2019-04-05T06:05:22.761Z,13.40
2019-04-05T06:07:51.974Z,13.77
2019-04-05T06:10:21.121Z,12.30
2019-04-05T06:12:51.217Z,11.73
2019-04-05T06:15:20.359Z,12.13
2019-04-05T06:17:49.780Z,12.33
2019-04-05T06:20:19.611Z,11.73
2019-04-05T06:22:48.791Z,12.73
2019-04-05T06:25:18.228Z,11.97
2019-04-05T06:27:47.382Z,12.17
2019-04-05T06:30:16.778Z,12.00
2019-04-05T06:32:46.080Z,12.53
2019-04-05T06:35:15.428Z,13.70
2019-04-05T06:37:44.646Z,12.67
2019-04-05T06:40:13.769Z,13.43
2019-04-05T06:42:43.185Z,12.90
2019-04-05T06:45:12.323Z,12.20
2019-04-05T06:47:41.466Z,12.67
2019-04-05T06:50:10.729Z,12.67
2019-04-05T06:52:39.862Z,12.33
2019-04-05T06:55:09.114Z,13.43
2019-04-05T06:57:38.273Z,13.33
2019-04-05T07:00:08.226Z,15.07
2019-04-05T07:02:37.444Z,12.93
2019-04-05T07:05:06.993Z,14.13
2019-04-05T07:07:36.125Z,13.60
2019-04-05T07:10:05.818Z,14.83
2019-04-05T07:12:35.107Z,15.17
2019-04-05T07:15:04.815Z,15.30
2019-04-05T07:17:34.095Z,15.47
2019-04-05T07:20:03.414Z,16.97
2019-04-05T07:22:38.850Z,16.50
2019-04-05T07:25:03.520Z,18.77
2019-04-05T07:27:32.650Z,19.40
2019-04-05T07:30:01.865Z,22.63
2019-04-05T07:32:31.422Z,23.03
2019-04-05T07:35:00.963Z,24.07
2019-04-05T07:37:30.154Z,25.00
2019-04-05T07:39:59.281Z,24.53
2019-04-05T07:42:28.460Z,24.13
2019-04-05T07:44:57.653Z,25.83
2019-04-05T07:47:26.806Z,25.10
2019-04-05T07:49:56.066Z,25.07
2019-04-05T07:52:25.202Z,26.13
2019-04-05T07:54:54.421Z,25.67
2019-04-05T07:57:23.926Z,25.70
2019-04-05T07:59:53.060Z,25.13
2019-04-05T08:02:22.198Z,25.83
2019-04-05T08:04:51.526Z,26.40
2019-04-05T08:07:22.014Z,25.77
2019-04-05T08:09:51.991Z,24.63
2019-04-05T08:12:21.732Z,26.57
2019-04-05T08:14:51.151Z,25.73
2019-04-05T08:17:20.774Z,25.90
2019-04-05T08:19:49.985Z,28.03
2019-04-05T08:22:19.162Z,27.70
2019-04-05T08:24:48.377Z,26.63
2019-04-05T08:27:17.573Z,27.50
2019-04-05T08:29:46.746Z,26.10
2019-04-05T08:32:15.920Z,26.83
2019-04-05T08:34:45.055Z,26.57
2019-04-05T08:37:14.245Z,26.63
2019-04-05T08:39:43.415Z,25.47
2019-04-05T08:42:12.722Z,28.17
2019-04-05T08:44:41.958Z,27.10
2019-04-05T08:47:11.125Z,28.13
2019-04-05T08:49:40.351Z,28.53
2019-04-05T08:52:09.539Z,28.37
2019-04-05T08:54:38.750Z,28.20
2019-04-05T08:57:07.895Z,27.77
2019-04-05T08:59:37.122Z,27.40
2019-04-05T09:02:06.590Z,27.70
2019-04-05T09:04:35.726Z,29.80
2019-04-05T09:07:04.895Z,27.80
2019-04-05T09:09:34.051Z,26.83
2019-04-05T09:12:03.269Z,26.20
2019-04-05T09:14:32.417Z,26.93
2019-04-05T09:17:01.619Z,27.17
2019-04-05T09:19:30.737Z,28.80
2019-04-05T09:21:59.925Z,30.37
2019-04-05T09:24:29.112Z,30.67
2019-04-05T09:26:58.271Z,29.37
2019-04-05T09:29:27.483Z,31.10
2019-04-05T09:31:56.654Z,29.40
2019-04-05T09:34:25.817Z,30.50
2019-04-05T09:36:55.428Z,29.67
2019-04-05T09:39:24.636Z,29.90
2019-04-05T09:41:53.794Z,30.73
2019-04-05T09:44:23.899Z,29.27
2019-04-05T09:46:53.213Z,32.63
2019-04-05T09:49:22.462Z,33.37
2019-04-05T09:51:51.823Z,33.37
2019-04-05T09:54:21.074Z,33.40
2019-04-05T09:56:50.204Z,31.97
2019-04-05T09:59:19.377Z,32.87
2019-04-05T10:01:48.583Z,31.27
2019-04-05T10:04:17.750Z,33.10
2019-04-05T10:06:46.897Z,33.97
2019-04-05T10:09:16.154Z,33.33
2019-04-05T10:11:45.292Z,33.63
2019-04-05T10:14:14.801Z,32.43
2019-04-05T10:16:44.007Z,34.23
2019-04-05T10:19:13.226Z,34.90
2019-04-05T10:21:42.387Z,32.67
2019-04-05T10:24:11.593Z,37.63
2019-04-05T10:26:40.937Z,35.07
2019-04-05T10:29:10.149Z,34.50
2019-04-05T10:31:58.469Z,35.00
2019-04-05T10:34:27.773Z,34.67
2019-04-05T10:36:57.073Z,34.33
2019-04-05T10:39:26.316Z,34.13
2019-04-05T10:42:03.187Z,34.70
2019-04-05T10:44:26.346Z,32.73
2019-04-05T10:46:55.509Z,32.17
2019-04-05T10:49:24.734Z,30.37
2019-04-05T10:51:54.003Z,32.03
2019-04-05T10:54:23.163Z,33.20
2019-04-05T10:56:52.370Z,32.63
2019-04-05T10:59:21.835Z,31.73
2019-04-05T11:01:51.023Z,32.50
2019-04-05T11:04:20.234Z,31.90
2019-04-05T11:06:49.389Z,32.23
2019-04-05T11:09:18.581Z,32.60
2019-04-05T11:11:48.066Z,32.27
2019-04-05T11:14:17.325Z,31.33
2019-04-05T11:16:57.914Z,30.93
2019-04-05T11:19:17.562Z,32.90
2019-04-05T11:21:48.513Z,33.07
2019-04-05T11:24:17.739Z,31.43
2019-04-05T11:26:47.023Z,32.00
2019-04-05T11:29:16.214Z,35.90
2019-04-05T11:31:56.230Z,35.97
2019-04-05T11:34:16.412Z,37.23
2019-04-05T11:36:45.838Z,35.47
2019-04-05T11:39:15.209Z,35.50
2019-04-05T11:41:45.585Z,35.93
2019-04-05T11:44:16.929Z,35.40
2019-04-05T11:46:49.152Z,32.77
2019-04-05T11:49:17.707Z,30.57
2019-04-05T11:51:46.977Z,31.13
2019-04-05T11:54:18.474Z,32.23
2019-04-05T11:56:47.214Z,30.60
2019-04-05T11:59:16.633Z,31.30
2019-04-05T12:01:53.998Z,29.07
2019-04-05T12:04:23.233Z,28.90
2019-04-05T12:06:52.601Z,27.97
2019-04-05T12:09:22.257Z,29.77
2019-04-05T12:11:51.398Z,28.00
2019-04-05T12:14:30.058Z,23.90
2019-04-05T12:16:51.522Z,24.10
2019-04-05T12:19:20.646Z,25.00
2019-04-05T12:21:49.857Z,25.80
2019-04-05T12:24:19.074Z,23.60
2019-04-05T12:26:48.214Z,26.20
2019-04-05T12:29:17.465Z,26.43
2019-04-05T12:31:47.098Z,27.10
2019-04-05T12:34:16.391Z,25.57
2019-04-05T12:36:45.562Z,25.20
2019-04-05T12:39:14.806Z,25.57
2019-04-05T12:41:45.065Z,25.33
2019-04-05T12:44:15.488Z,27.33
2019-04-05T12:46:45.916Z,26.03
2019-04-05T12:49:15.817Z,26.07
2019-04-05T12:51:45.576Z,25.03
2019-04-05T12:54:15.497Z,24.77
2019-04-05T12:56:44.900Z,26.47
2019-04-05T12:59:14.450Z,27.17
2019-04-05T13:01:45.722Z,25.23
2019-04-05T13:04:14.530Z,25.97
2019-04-05T13:06:43.777Z,25.13
2019-04-05T13:09:13.932Z,27.03
2019-04-05T13:11:43.197Z,27.03
2019-04-05T13:14:12.324Z,26.43
2019-04-05T13:16:41.510Z,25.37
2019-04-05T13:19:10.787Z,26.33
2019-04-05T13:21:39.958Z,25.97
2019-04-05T13:24:10.081Z,26.70
2019-04-05T13:26:41.693Z,26.37
2019-04-05T13:29:10.396Z,24.83
2019-04-05T13:31:40.974Z,25.20
2019-04-05T13:34:10.335Z,24.03
2019-04-05T13:36:39.551Z,25.30
2019-04-05T13:39:09.665Z,25.90
2019-04-05T13:41:38.934Z,26.13
2019-04-05T13:44:08.382Z,27.67
2019-04-05T13:46:39.001Z,25.37
2019-04-05T13:49:10.331Z,28.77
2019-04-05T13:51:41.910Z,26.77
2019-04-05T13:54:11.015Z,25.90
2019-04-05T13:56:41.464Z,27.50
2019-04-05T13:59:11.182Z,26.30
2019-04-05T14:01:40.466Z,25.97
2019-04-05T14:04:09.741Z,27.13
2019-04-05T14:06:58.226Z,25.83
2019-04-05T14:09:27.705Z,26.47
2019-04-05T14:11:56.898Z,25.93
2019-04-05T14:14:28.378Z,25.63
2019-04-05T14:16:57.638Z,25.80
2019-04-05T14:19:28.779Z,25.30
2019-04-05T14:22:08.536Z,27.23
2019-04-05T14:24:29.403Z,26.37
2019-04-05T14:26:59.057Z,25.63
2019-04-05T14:29:29.533Z,26.37
2019-04-05T14:32:00.956Z,27.80
2019-04-05T14:34:32.933Z,27.17
2019-04-05T14:37:02.359Z,27.40
2019-04-05T14:39:31.654Z,26.07
2019-04-05T14:42:09.630Z,25.57
2019-04-05T14:44:31.887Z,25.97
2019-04-05T14:47:01.026Z,26.17
2019-04-05T14:49:31.312Z,27.10
2019-04-05T14:52:01.774Z,26.73
2019-04-05T14:54:31.113Z,26.80
2019-04-05T14:57:05.379Z,26.77
2019-04-05T14:59:32.809Z,25.77
2019-04-05T15:02:02.290Z,26.57
2019-04-05T15:04:31.432Z,28.70
2019-04-05T15:07:01.354Z,27.10
2019-04-05T15:09:30.812Z,28.60
2019-04-05T15:11:59.969Z,26.23
2019-04-05T15:14:29.506Z,25.73
2019-04-05T15:16:58.686Z,26.63
2019-04-05T15:19:27.925Z,26.03
2019-04-05T15:22:05.582Z,26.40
2019-04-05T15:24:27.989Z,25.67
2019-04-05T15:26:57.168Z,26.10
2019-04-05T15:29:26.643Z,25.80
2019-04-05T15:31:56.135Z,26.80
2019-04-05T15:34:29.054Z,28.13
2019-04-05T15:39:50.530Z,25.93
2019-04-05T15:42:19.678Z,25.57
2019-04-05T15:44:48.953Z,25.77
2019-04-05T15:47:18.119Z,26.07
2019-04-05T15:49:51.524Z,25.63
2019-04-05T15:52:19.333Z,26.40
2019-04-05T15:54:48.732Z,27.67
2019-04-05T15:57:17.979Z,27.23
2019-04-05T15:59:47.221Z,27.10
2019-04-05T16:02:16.570Z,27.73
2019-04-05T16:04:46.122Z,26.17
2019-04-05T16:07:15.290Z,26.13
2019-04-05T16:09:44.472Z,26.03
2019-04-05T16:12:13.651Z,25.07
2019-04-05T16:14:42.922Z,25.87
2019-04-05T16:17:12.715Z,24.20
2019-04-05T16:19:42.310Z,24.70
2019-04-05T16:22:11.634Z,24.50
2019-04-05T16:24:41.013Z,23.90
2019-04-05T16:27:11.604Z,25.43
2019-04-05T16:29:40.894Z,25.00
2019-04-05T16:32:10.133Z,24.57
2019-04-05T16:34:39.320Z,24.97
2019-04-05T16:37:08.688Z,25.33
2019-04-05T16:39:37.888Z,24.00
2019-04-05T16:42:10.108Z,24.27
2019-04-05T16:44:38.267Z,26.33
2019-04-05T16:47:07.581Z,26.60
2019-04-05T16:49:36.933Z,26.03
2019-04-05T16:52:06.134Z,29.07
2019-04-05T16:54:35.277Z,29.37
2019-04-05T16:57:04.475Z,25.90
2019-04-05T16:59:33.630Z,27.47
2019-04-05T17:02:02.878Z,28.87
2019-04-05T17:04:32.134Z,26.83
2019-04-05T17:07:01.458Z,26.93
2019-04-05T17:09:30.673Z,25.73
2019-04-05T17:11:59.963Z,25.10
2019-04-05T17:14:29.254Z,25.90
2019-04-05T17:16:58.913Z,26.03
2019-04-05T17:19:28.081Z,25.57
2019-04-05T17:21:57.327Z,25.97
2019-04-05T17:24:27.965Z,23.80
2019-04-05T17:26:57.530Z,25.27
2019-04-05T17:29:26.943Z,24.63
2019-04-05T17:31:56.118Z,26.70
2019-04-05T17:34:25.515Z,26.53
2019-04-05T17:36:54.737Z,24.20
2019-04-05T17:39:23.894Z,26.23
2019-04-05T17:41:53.055Z,25.97
2019-04-05T17:44:22.330Z,25.60
2019-04-05T17:46:51.485Z,25.57
2019-04-05T17:49:20.703Z,26.00
2019-04-05T17:51:49.885Z,25.87
2019-04-05T17:54:19.065Z,25.97
2019-04-05T17:56:50.913Z,25.57
2019-04-05T17:59:20.464Z,24.77
2019-04-05T18:01:49.662Z,27.80
2019-04-05T18:04:18.806Z,27.10
2019-04-05T18:06:47.966Z,26.43
2019-04-05T18:09:17.213Z,25.57
2019-04-05T18:11:46.352Z,29.33
2019-04-05T18:14:15.493Z,27.33
2019-04-05T18:16:44.659Z,26.23
2019-04-05T18:19:13.831Z,25.93
2019-04-05T18:21:43.107Z,27.17
2019-04-05T18:24:12.377Z,26.30
2019-04-05T18:26:41.741Z,26.13
2019-04-05T18:29:12.834Z,25.97
2019-04-05T18:31:43.547Z,27.87
2019-04-05T18:34:13.030Z,27.50
2019-04-05T18:36:42.186Z,26.90
2019-04-05T18:39:11.815Z,26.37
2019-04-05T18:41:41.001Z,25.93
2019-04-05T18:44:10.133Z,25.83
2019-04-05T18:46:39.334Z,25.70
2019-04-05T18:49:08.498Z,26.90
2019-04-05T18:51:37.638Z,31.40
2019-04-05T18:54:06.930Z,28.57
2019-04-05T18:56:36.065Z,26.53
2019-04-05T18:59:05.281Z,25.83
2019-04-05T19:01:34.434Z,27.03
2019-04-05T19:04:05.519Z,28.00
2019-04-05T19:06:34.555Z,26.10
2019-04-05T19:09:05.733Z,26.30
2019-04-05T19:11:35.255Z,26.20
2019-04-05T19:14:04.632Z,27.20
2019-04-05T19:16:34.126Z,28.83
2019-04-05T19:19:03.620Z,25.83
2019-04-05T19:21:32.897Z,26.90
2019-04-05T19:24:02.067Z,28.50
2019-04-05T19:26:31.562Z,26.93
2019-04-05T19:29:00.681Z,27.80
2019-04-05T19:49:10.082Z,24.47
2019-04-05T19:51:39.226Z,26.30
2019-04-05T19:54:08.380Z,26.77
2019-04-05T19:56:37.630Z,25.87
2019-04-05T19:59:06.770Z,24.93
2019-04-05T20:01:36.004Z,26.50
2019-04-05T20:04:05.401Z,26.80
2019-04-05T20:06:34.638Z,25.47
2019-04-05T20:09:05.747Z,25.00
2019-04-05T20:11:34.941Z,26.20
2019-04-05T20:14:04.221Z,25.50
2019-04-05T20:16:33.840Z,26.10
2019-04-05T20:19:02.973Z,26.23
2019-04-05T20:21:32.143Z,25.17
2019-04-05T20:24:09.412Z,25.57
2019-04-05T20:26:32.406Z,25.63
2019-04-05T20:29:01.665Z,25.93
2019-04-05T20:31:30.798Z,24.60
2019-04-05T20:34:00.035Z,23.63
2019-04-05T20:36:29.297Z,24.00
2019-04-05T20:38:58.545Z,23.57
2019-04-05T20:41:27.682Z,25.47
2019-04-05T20:43:57.219Z,23.97
2019-04-05T20:46:27.762Z,24.00
2019-04-05T20:48:56.930Z,24.33
2019-04-05T20:51:26.126Z,24.67
2019-04-05T20:53:55.449Z,24.63
2019-04-05T20:56:24.878Z,23.87
2019-04-05T20:58:54.029Z,24.00
2019-04-05T21:01:23.290Z,23.90
2019-04-05T21:03:52.457Z,24.73
2019-04-05T21:06:21.982Z,24.30
2019-04-05T21:08:51.469Z,24.30
2019-04-05T21:11:20.721Z,24.03
2019-04-05T21:13:49.862Z,23.70
2019-04-05T21:16:19.164Z,23.17
2019-04-05T21:18:48.537Z,24.07
2019-04-05T21:21:17.761Z,24.73
2019-04-05T21:23:47.325Z,25.07
2019-04-05T21:26:16.902Z,24.10
2019-04-05T21:28:46.016Z,24.23
2019-04-05T21:31:15.157Z,24.60
2019-04-05T21:33:44.321Z,24.63
2019-04-05T21:36:13.501Z,23.90
2019-04-05T21:38:42.805Z,23.87
2019-04-05T21:41:13.225Z,25.17
2019-04-05T21:43:42.654Z,26.70
2019-04-05T21:46:11.882Z,25.53
2019-04-05T21:48:41.020Z,23.20
2019-04-05T21:51:10.218Z,25.37
2019-04-05T21:53:39.382Z,25.90
2019-04-05T21:56:08.605Z,25.93
2019-04-05T21:58:37.877Z,26.10
2019-04-05T22:01:10.366Z,27.53
2019-04-05T22:03:39.597Z,25.10
2019-04-05T22:06:08.787Z,25.57
2019-04-05T22:08:37.949Z,25.50
2019-04-05T22:11:08.946Z,24.60
2019-04-05T22:13:39.988Z,24.70
2019-04-05T22:16:09.262Z,24.53
2019-04-05T22:18:38.390Z,26.57
2019-04-05T22:21:07.562Z,24.77
2019-04-05T22:23:36.705Z,25.03
2019-04-05T22:26:07.741Z,25.67
2019-04-05T22:28:36.894Z,24.23
2019-04-05T22:31:06.081Z,24.73
2019-04-05T22:33:35.237Z,25.40
2019-04-05T22:36:04.464Z,26.30
2019-04-05T22:38:33.637Z,26.00
2019-04-05T22:41:03.330Z,24.80
2019-04-05T22:43:32.458Z,26.17
2019-04-05T22:46:01.621Z,25.90
2019-04-05T22:48:30.757Z,30.37
2019-04-05T22:50:59.981Z,25.73
2019-04-05T22:53:29.409Z,26.17
2019-04-05T22:55:58.550Z,25.53
2019-04-05T22:58:28.037Z,26.53
2019-04-05T23:00:57.165Z,25.50
2019-04-05T23:03:26.299Z,27.03
2019-04-05T23:05:56.829Z,27.13
2019-04-05T23:08:25.940Z,25.63
2019-04-05T23:10:55.113Z,26.43
2019-04-05T23:13:24.265Z,26.57
2019-04-05T23:15:53.473Z,26.00
2019-04-05T23:18:22.631Z,26.87
2019-04-05T23:20:51.805Z,26.73
2019-04-05T23:23:21.041Z,25.47
2019-04-05T23:25:50.197Z,24.27
2019-04-05T23:28:19.366Z,26.70
2019-04-05T23:30:48.586Z,25.90
2019-04-05T23:33:17.762Z,24.80
2019-04-05T23:35:46.932Z,26.97
2019-04-05T23:38:16.145Z,27.53
2019-04-05T23:40:45.305Z,26.80
2019-04-05T23:43:14.546Z,29.33
2019-04-05T23:45:43.766Z,28.67
2019-04-05T23:48:12.918Z,27.13
2019-04-05T23:50:42.080Z,27.70
2019-04-05T23:53:11.229Z,26.50
2019-04-05T23:55:41.591Z,27.33
2019-04-05T23:58:10.738Z,26.87
